Latest Weather Observations for Cooma Airport

IDN60901

Issued at 3:01 am EDT Thursday 23 November 2017 (issued every 10 minutes, with the page automatically refreshed every 10 minutes)

About weather observations | Map of Canberra area stations | Latest observations for Canberra area | Other Formats
Station Details ID: 070217 Name: COOMA AIRPORT AWS Lat: -36.29 Lon: 148.97 Height: 930.0 m
Data from the previous 72 hours. | See also: Recent months at Cooma Airport
Date/Time
EDT
Temp
°C
App
Temp
°C
Dew
Point
°C
Rel
Hum
%
Delta-T
°C
Wind Press
QNH
hPa
Press
MSL
hPa
Rain since
9am
mm
Dir  Spd
km/h
Gust
km/h
Spd
kts
Gust
kts
23/02:58am 9.6 6.7 9.6 100 0.0 NNE 15 17 8 9 1017.1 1014.7 0.0
23/02:30am 10.0 6.8 10.0 100 0.0 NE 17 20 9 11 1017.3 1014.9 0.0
23/02:00am 10.6 7.6 10.6 100 0.0 NE 17 19 9 10 1017.6 1015.2 0.0
23/01:30am 10.6 7.6 10.6 100 0.0 NE 17 19 9 10 1017.9 1015.5 0.0
23/01:00am 10.7 8.1 10.7 100 0.0 NE 15 15 8 8 1018.3 1015.9 0.0
23/12:30am 11.0 8.5 11.0 100 0.0 NE 15 17 8 9 1018.5 1016.1 0.0
23/12:04am 11.4 8.6 11.2 99 0.1 NE 17 20 9 11 1018.7 1016.4 0.0
23/12:00am 11.4 8.6 11.2 99 0.1 NE 17 20 9 11 1018.7 1016.4 0.0
 
Date/Time
EDT
Temp
°C
App
Temp
°C
Dew
Point
°C
Rel
Hum
%
Delta-T
°C
Wind Press
QNH
hPa
Press
MSL
hPa
Rain since
9am
mm
Dir  Spd
km/h
Gust
km/h
Spd
kts
Gust
kts
22/11:30pm 12.0 9.7 11.8 99 0.1 NE 15 20 8 11 1018.8 1016.5 0.0
22/11:00pm 12.8 10.8 12.6 99 0.1 NNE 15 20 8 11 1019.0 1016.6 0.0
22/10:30pm 12.9 10.1 12.7 99 0.1 NE 19 22 10 12 1019.0 1016.6 0.0
22/10:00pm 13.2 10.9 13.0 99 0.1 NE 17 20 9 11 1019.0 1016.6 0.0
22/09:30pm 13.1 10.8 12.9 99 0.1 NE 17 20 9 11 1018.8 1016.5 0.0
22/09:12pm 13.0 10.3 12.8 99 0.1 NE 19 24 10 13 1018.7 1016.4 0.0
22/09:00pm 13.0 10.1 12.8 99 0.1 NE 20 26 11 14 1018.6 1016.2 0.0
22/08:30pm 13.6 9.8 12.5 93 0.6 NE 24 32 13 17 1018.2 1015.8 0.0
22/08:00pm 14.6 10.4 12.3 86 1.3 NE 26 32 14 17 1018.1 1015.7 0.0
22/07:30pm 15.9 11.6 11.9 77 2.3 NE 26 33 14 18 1018.0 1015.6 0.0
22/07:00pm 17.5 12.8 12.0 70 3.2 ENE 28 35 15 19 1017.6 1015.2 0.0
22/06:30pm 19.0 14.3 12.0 64 4.1 ENE 28 35 15 19 1017.3 1014.9 0.0
22/06:00pm 20.8 16.7 12.8 60 4.7 ENE 26 33 14 18 1017.0 1014.6 0.0
22/05:30pm 22.2 18.0 11.0 49 6.5 NE 24 32 13 17 1016.9 1014.5 0.0
22/05:00pm 23.5 20.3 4.9 30 9.7 NNE 11 20 6 11 1016.9 1014.5 0.0
22/04:30pm 23.4 20.3 1.1 23 10.9 NNE 7 13 4 7 1017.2 1014.8 0.0
22/04:00pm 23.1 18.5 -4.1 16 12.0 NE 11 17 6 9 1017.5 1015.1 0.0
22/03:30pm 22.8 18.3 -0.6 21 11.0 NE 13 17 7 9 1017.9 1015.5 0.0
22/03:00pm 22.2 18.3 -1.8 20 10.9 NNW 9 13 5 7 1018.2 1015.8 0.0
22/02:30pm 22.3 17.4 -3.1 18 11.3 NE 13 19 7 10 1018.6 1016.2 0.0
22/02:00pm 21.8 18.5 0.4 24 10.1 NNE 7 17 4 9 1019.1 1016.7 0.0
22/01:30pm 21.3 16.7 -1.3 22 10.3 NE 13 19 7 10 1019.5 1017.1 0.0
22/01:00pm 21.0 16.7 1.3 27 9.4 NNE 13 20 7 11 1019.8 1017.5 0.0
22/12:30pm 20.5 15.9 1.4 28 9.2 NNE 15 20 8 11 1020.2 1017.8 0.0
22/12:00pm 19.9 16.2 4.4 36 7.8 NNE 13 20 7 11 1020.5 1018.1 0.0
22/11:30am 18.9 15.4 7.4 47 6.1 NE 15 20 8 11 1020.7 1018.4 0.0
22/11:00am 18.1 14.3 7.5 50 5.6 NE 17 24 9 13 1020.9 1018.6 0.0
22/10:30am 16.8 12.7 8.0 56 4.7 NE 19 26 10 14 1021.3 1018.9 0.0
22/10:00am 15.8 11.7 8.8 63 3.7 NE 20 24 11 13 1021.5 1019.1 0.0
22/09:30am 14.9 11.1 9.1 68 3.1 NE 19 24 10 13 1021.6 1019.3 0.0
22/09:00am 13.4 9.3 8.7 73 2.5 NE 20 26 11 14 1021.9 1019.6 0.2
22/08:30am 11.9 7.3 8.0 77 2.0 NE 22 26 12 14 1021.9 1019.6 0.2
22/08:00am 10.8 7.1 9.4 91 0.7 NNE 19 24 10 13 1022.1 1019.8 0.2
22/07:58am 10.5 6.7 9.1 91 0.7 NNE 19 24 10 13 1022.1 1019.8 0.2
22/07:30am 9.2 4.8 9.1 99 0.1 NNE 22 28 12 15 1022.1 1019.8 0.2
22/07:00am 8.9 4.9 8.9 100 0.0 NNE 20 26 11 14 1022.0 1019.7 0.2
22/06:31am 8.4 3.5 8.4 100 0.0 NNE 24 30 13 16 1021.9 1019.6 0.2
22/06:30am 8.5 3.6 8.5 100 0.0 NNE 24 30 13 16 1021.9 1019.6 0.2
22/06:00am 8.7 4.8 8.7 100 0.0 NNE 19 24 10 13 1021.8 1019.5 0.2
22/05:30am 8.1 3.9 8.1 100 0.0 NNE 20 24 11 13 1021.6 1019.3 0.2
22/05:00am 7.6 4.6 7.6 100 0.0 NNE 13 17 7 9 1021.5 1019.1 0.2
22/04:30am 7.4 3.6 7.4 100 0.0 NE 17 20 9 11 1021.5 1019.1 0.2
22/04:00am 6.7 3.1 6.7 100 0.0 NNE 15 17 8 9 1021.4 1019.0 0.2
22/03:30am 7.2 4.1 7.2 100 0.0 NNE 13 17 7 9 1021.5 1019.1 0.2
22/03:00am 7.3 4.6 7.3 100 0.0 N 11 11 6 6 1021.7 1019.4 0.2
22/02:30am 7.6 5.0 7.6 100 0.0 N 11 13 6 7 1021.8 1019.5 0.2
22/02:00am 7.4 4.7 7.4 100 0.0 NNE 11 13 6 7 1022.1 1019.8 0.2
22/01:30am 6.8 3.6 6.7 99 0.0 NNE 13 15 7 8 1022.2 1019.9 0.2
22/01:29am 6.8 3.6 6.7 99 0.0 NNE 13 15 7 8 1022.2 1019.9 0.2
22/01:23am 7.7 4.7 7.6 99 0.0 NE 13 15 7 8 1022.1 1019.8 0.2
22/01:16am 7.7 4.7 7.6 99 0.0 NE 13 17 7 9 1022.2 1019.9 0.2
22/01:00am 7.9 4.5 7.8 99 0.0 NNE 15 15 8 8 1022.5 1020.1 0.2
22/12:30am 8.3 5.8 8.2 99 0.1 NNE 11 15 6 8 1022.8 1020.5 0.2
22/12:00am 9.5 6.2 9.4 99 0.1 NNE 17 19 9 10 1023.0 1020.7 0.2
 
Date/Time
EDT
Temp
°C
App
Temp
°C
Dew
Point
°C
Rel
Hum
%
Delta-T
°C
Wind Press
QNH
hPa
Press
MSL
hPa
Rain since
9am
mm
Dir  Spd
km/h
Gust
km/h
Spd
kts
Gust
kts
21/11:58pm 9.4 6.0 9.3 99 0.1 NNE 17 19 9 10 1023.1 1020.8 0.2
21/11:30pm 10.1 6.4 10.0 99 0.1 NNE 20 26 11 14 1023.1 1020.8 0.2
21/11:00pm 9.5 6.0 8.9 96 0.3 NNE 17 20 9 11 1023.3 1021.0 0.2
21/10:30pm 9.9 6.9 9.4 97 0.3 NE 15 17 8 9 1023.3 1021.0 0.2
21/10:00pm 10.4 7.8 9.3 93 0.6 NNE 13 15 7 8 1023.6 1021.3 0.2
21/09:30pm 11.1 8.1 9.4 89 0.9 NE 15 17 8 9 1023.6 1021.3 0.2
21/09:00pm 12.9 8.6 9.5 80 1.8 ENE 22 30 12 16 1023.3 1021.0 0.2
21/08:30pm 14.0 9.2 9.0 72 2.7 NE 24 32 13 17 1023.2 1020.9 0.2
21/08:00pm 15.2 11.1 8.7 65 3.5 NE 20 26 11 14 1022.8 1020.5 0.2
21/07:30pm 17.3 14.1 10.0 62 4.0 NE 17 22 9 12 1022.5 1020.1 0.2
21/07:00pm 19.4 15.2 8.4 49 6.0 ENE 20 24 11 13 1022.2 1019.9 0.2
21/06:30pm 20.9 16.5 6.4 39 7.7 NE 19 26 10 14 1022.1 1019.8 0.2
21/06:00pm 21.6 17.5 4.2 32 8.8 NNE 15 20 8 11 1022.1 1019.8 0.2
21/05:30pm 22.1 17.8 3.3 29 9.5 ENE 15 22 8 12 1022.1 1019.8 0.2
21/05:00pm 22.0 17.1 2.2 27 9.7 NE 17 24 9 13 1022.2 1019.9 0.2
21/04:30pm 22.1 18.4 4.2 31 9.2 ENE 13 20 7 11 1022.5 1020.1 0.2
21/04:00pm 22.1 18.2 3.3 29 9.4 E 13 19 7 10 1022.7 1020.4 0.2
21/03:30pm 22.2 17.8 2.8 28 9.7 E 15 24 8 13 1023.1 1020.8 0.2
21/03:00pm 22.2 19.0 3.3 29 9.5 ENE 9 15 5 8 1023.2 1020.9 0.2
21/02:30pm 22.0 17.9 2.2 27 9.7 NE 13 20 7 11 1023.7 1021.4 0.2
21/02:00pm 22.0 17.8 1.6 26 9.9 E 13 22 7 12 1024.1 1021.8 0.2
21/01:30pm 21.0 18.1 2.8 30 9.0 ENE 7 17 4 9 1024.4 1022.2 0.2
21/01:00pm 20.7 16.5 1.6 28 9.2 NNE 13 19 7 10 1024.6 1022.4 0.2
21/12:30pm 20.5 16.7 4.1 34 8.3 NE 13 19 7 10 1025.0 1022.7 0.2
21/12:00pm 19.2 16.3 6.7 44 6.5 NE 11 17 6 9 1025.3 1023.0 0.2
21/11:30am 18.1 14.8 6.6 47 6.0 NNE 13 17 7 9 1025.5 1023.3 0.2
21/11:00am 16.2 13.9 10.3 68 3.3 NE 13 19 7 10 1025.7 1023.5 0.2
21/10:30am 14.8 12.1 11.6 81 1.8 NE 17 22 9 12 1026.0 1023.7 0.2
21/10:06am 13.5 10.6 12.4 93 0.6 NE 19 22 10 12 1026.0 1023.7 0.2
21/10:00am 12.5 9.1 11.4 93 0.6 NE 20 24 11 13 1026.0 1023.7 0.2
21/09:30am 10.9 7.6 10.9 100 0.0 NE 19 24 10 13 1026.0 1023.7 0.0
21/09:00am 10.2 7.1 10.2 100 0.0 NNE 17 22 9 12 1026.1 1023.8 0.0
21/08:59am 9.9 6.7 9.9 100 0.0 NNE 17 20 9 11 1026.1 1023.8 0.0
21/08:30am 9.4 5.5 9.4 100 0.0 NE 20 26 11 14 1025.8 1023.6 0.0
21/08:00am 9.2 5.4 9.2 100 0.0 NNE 19 24 10 13 1025.7 1023.5 0.0
21/07:30am 8.3 4.3 8.3 100 0.0 NE 19 24 10 13 1025.6 1023.4 0.0
21/07:00am 8.4 4.4 8.4 100 0.0 NE 19 24 10 13 1025.6 1023.4 0.0
21/06:30am 8.2 4.6 8.2 100 0.0 NE 17 20 9 11 1025.5 1023.3 0.0
21/06:00am 8.0 4.3 8.0 100 0.0 NE 17 22 9 12 1025.4 1023.2 0.0
21/05:30am 8.3 4.3 8.3 100 0.0 NNE 19 22 10 12 1025.2 1022.9 0.0
21/05:00am 8.2 4.2 8.2 100 0.0 NE 19 22 10 12 1025.0 1022.7 0.0
21/04:30am 8.6 5.4 8.6 100 0.0 NNE 15 19 8 10 1024.9 1022.6 0.0
21/04:00am 8.6 5.8 8.6 100 0.0 NE 13 17 7 9 1025.0 1022.7 0.0
21/03:30am 8.5 5.7 8.5 100 0.0 NE 13 17 7 9 1025.1 1022.8 0.0
21/03:00am 7.9 4.9 7.9 100 0.0 NE 13 15 7 8 1025.3 1023.0 0.0
21/02:30am 7.2 4.5 7.2 100 0.0 NE 11 15 6 8 1025.3 1023.0 0.0
21/02:00am 5.8 3.5 5.7 99 0.0 NE 7 9 4 5 1025.6 1023.4 0.0
21/01:45am 6.9 5.0 6.8 99 0.0 NE 6 9 3 5 1025.7 1023.5 0.0
21/01:42am 6.8 4.7 6.7 99 0.0 NE 7 9 4 5 1025.7 1023.5 0.0
21/01:30am 6.4 4.4 6.3 99 0.0 NE 6 7 3 4 1025.8 1023.6 0.0
21/01:00am 7.6 5.3 7.6 100 0.0 N 9 11 5 6 1026.2 1023.9 0.0
21/12:30am 7.4 4.7 7.3 99 0.0 NNE 11 13 6 7 1026.2 1023.9 0.0
21/12:00am 7.5 5.6 7.4 99 0.0 NE 7 9 4 5 1026.5 1024.3 0.0
 
Date/Time
EDT
Temp
°C
App
Temp
°C
Dew
Point
°C
Rel
Hum
%
Delta-T
°C
Wind Press
QNH
hPa
Press
MSL
hPa
Rain since
9am
mm
Dir  Spd
km/h
Gust
km/h
Spd
kts
Gust
kts
20/11:30pm 8.9 7.5 8.8 99 0.1 NNW 6 7 3 4 1026.4 1024.2 0.0
20/11:00pm 8.8 6.4 8.7 99 0.1 NNE 11 15 6 8 1026.3 1024.1 0.0
20/10:30pm 9.9 6.5 9.3 96 0.3 NNE 17 19 9 10 1026.4 1024.2 0.0
20/10:00pm 10.5 7.6 9.7 95 0.4 NNE 15 17 8 9 1026.4 1024.2 0.0
20/09:30pm 11.9 8.9 10.6 92 0.7 NNE 17 20 9 11 1026.2 1023.9 0.0
20/09:00pm 11.9 9.2 10.5 91 0.8 NE 15 17 8 9 1026.1 1023.8 0.0
20/08:30pm 12.8 10.1 10.5 86 1.3 NE 15 17 8 9 1026.0 1023.7 0.0
20/08:00pm 14.5 11.0 10.1 75 2.4 NE 19 24 10 13 1025.6 1023.4 0.0
20/07:30pm 16.6 12.5 10.2 66 3.5 ENE 22 28 12 15 1025.3 1023.0 0.0
20/07:00pm 18.1 13.1 9.5 57 4.7 ENE 26 32 14 17 1025.1 1022.8 0.0
20/06:30pm 19.6 13.8 8.0 47 6.3 ENE 28 35 15 19 1024.8 1022.5 0.0
20/06:00pm 20.6 14.8 7.9 44 6.9 ENE 28 35 15 19 1024.5 1022.3 0.0
20/05:30pm 21.5 16.4 7.7 41 7.5 ENE 24 35 13 19 1024.5 1022.3 0.0
20/05:00pm 22.0 17.0 8.2 41 7.6 E 24 33 13 18 1024.5 1022.3 0.0
20/04:30pm 22.3 18.3 9.1 43 7.4 ENE 20 32 11 17 1024.5 1022.3 0.0
20/04:00pm 22.1 18.0 8.6 42 7.4 ENE 20 26 11 14 1024.6 1022.4 0.0
20/03:30pm 22.5 19.0 10.3 46 7.0 ENE 19 26 10 14 1025.0 1022.7 0.0
20/03:00pm 22.3 20.6 12.3 53 5.9 ENE 13 19 7 10 1025.2 1022.9 0.0
20/02:30pm 21.7 18.8 9.6 46 6.8 NNE 15 24 8 13 1025.5 1023.3 0.0
20/02:00pm 21.8 18.4 9.3 45 7.0 NE 17 30 9 16 1025.6 1023.4 0.0
20/01:30pm 20.6 17.1 10.1 51 5.9 NE 19 24 10 13 1026.1 1023.8 0.0
20/01:00pm 20.5 17.0 10.3 52 5.7 NE 19 26 10 14 1026.4 1024.2 0.0
20/12:30pm 19.4 16.0 9.3 52 5.6 NNE 17 24 9 13 1026.7 1024.5 0.0
20/12:00pm 18.6 15.2 11.2 62 4.2 NNE 20 30 11 16 1026.8 1024.6 0.0
20/11:30am 17.6 13.7 9.5 59 4.5 NE 20 32 11 17 1027.1 1024.8 0.0
20/11:00am 16.4 13.5 9.8 65 3.6 NNE 15 24 8 13 1027.4 1025.2 0.0
20/10:30am 15.5 12.9 9.4 67 3.3 NE 13 22 7 12 1027.7 1025.5 0.0
20/10:00am 14.5 10.9 8.5 67 3.2 NE 17 20 9 11 1027.5 1025.3 0.0
20/09:30am 13.4 10.4 9.1 75 2.3 NE 15 20 8 11 1027.4 1025.2 0.0
20/09:00am 12.6 9.6 9.1 79 1.8 NE 15 20 8 11 1027.5 1025.3 0.4
20/08:30am 11.7 9.0 10.3 91 0.8 NE 15 19 8 10 1027.5 1025.3 0.4
20/08:00am 10.6 8.6 10.1 97 0.3 NNE 11 13 6 7 1027.4 1025.2 0.4
20/07:30am 9.0 6.7 9.0 100 0.0 NE 11 15 6 8 1027.1 1024.8 0.4
20/07:09am 7.9 4.9 7.9 100 0.0 NE 13 15 7 8 1026.8 1024.6 0.4
20/07:04am 7.7 4.7 7.7 100 0.0 NE 13 15 7 8 1026.9 1024.7 0.4
20/07:00am 7.5 4.5 7.5 100 0.0 NE 13 15 7 8 1026.8 1024.6 0.4
20/06:30am 5.9 3.3 5.9 100 0.0 NNE 9 13 5 7 1026.5 1024.3 0.2
20/06:00am 4.7 2.2 4.6 99 0.0 NNE 7 9 4 5 1026.4 1024.2 0.2
20/05:30am 4.9 3.4 4.8 99 0.0 NE 2 7 1 4 1026.2 1023.9 0.2
20/05:00am 6.3 3.7 6.3 100 0.0 NE 9 11 5 6 1025.8 1023.6 0.2
20/04:35am 5.9 3.8 5.9 100 0.0 N 6 7 3 4 1025.8 1023.6 0.2
20/04:30am 5.9 3.8 5.9 100 0.0 NW 6 6 3 3 1025.8 1023.6 0.2
20/04:23am 7.3 5.5 7.3 100 0.0 NW 6 9 3 5 1026.0 1023.7 0.2
20/04:04am 7.0 4.2 7.0 100 0.0 N 11 13 6 7 1026.0 1023.7 0.2
20/04:00am 6.8 4.4 6.8 100 0.0 N 9 13 5 7 1026.0 1023.7 0.2
20/03:54am 5.8 2.4 5.8 100 0.0 NNE 13 17 7 9 1026.0 1023.7 0.2
20/03:40am 5.9 2.1 5.9 100 0.0 NNE 15 15 8 8 1026.0 1023.7 0.2
20/03:30am 6.4 3.1 6.4 100 0.0 NNE 13 15 7 8 1026.0 1023.7 0.2
20/03:08am 6.5 4.0 6.4 99 0.0 NNE 9 11 5 6 1026.1 1023.8 0.2

Latest Capital City Observations: Canberra | Sydney | Melbourne | Brisbane | Adelaide | Perth | Hobart | Darwin

Other Formats:

Comma delimited format used in spreadsheet applications
http://www.bom.gov.au/fwo/IDN60903/IDN60903.94921.axf

JavaScript Object Notation format (JSON) in row-major order
http://www.bom.gov.au/fwo/IDN60903/IDN60903.94921.json